Language selection

Features

My Weather Profile Weather Topics  | 

Dixon Entrance West - west of Langara: Past 24 Hour Conditions

 

South Hecate Strait - 46185

05:00 AM PDT 25 June 2022Buoy position: 52.43N 129.79W
Disclaimer

This table is a summary of hourly weather conditions for the past 24 hours.
Please note that these observations might not always be representative of weather conditions over their associated marine area.

Date / Time
(PDT)
Wind(knots) Wave height(m) Wave period(s) Pressure(kPa) Air tempC) Water tempC)
25 June 2022
5:00 NW 10 gust 12 0.6 17.1 102.5 13 13
4:00 WNW 8 gust 10 N/A 17.1 102.6 13 13
3:00 W 11 gust 12 N/A 18.3 102.6 13 13
2:00 WNW 8 gust 10 N/A 18.3 102.5 13 13
1:00 WNW 8 gust 9 N/A 18.3 102.5 13 13
0:00 W 5 gust 6 0.5 18.3 102.5 13 13
24 June 2022
23:00 W 7 gust 8 0.5 18.3 102.5 12 13
22:00 W 5 gust 6 0.5 18.3 102.5 12 13
21:00 WNW 5 gust 5 0.6 18.3 102.5 11 13
20:00 W 6 gust 8 0.5 18.3 102.5 10 13
19:00 W 5 gust 7 N/A 18.3 102.5 11 13
18:00 NW 6 gust 8 N/A 18.3 102.6 11 13
17:00 NW 8 gust 9 N/A 18.3 102.6 11 13
16:00 NW 9 gust 11 N/A 18.3 102.6 11 13
15:00 NW 10 gust 12 N/A 18.3 102.6 11 13
14:00 NW 10 gust 13 0.6 18.3 102.6 11 13
13:00 NW 12 gust 15 0.6 18.3 102.6 11 13
12:00 NW 11 gust 13 0.6 18.3 102.6 11 13
11:00 NW 9 gust 12 0.7 18.3 102.6 11 13
10:00 NNW 10 gust 12 0.7 18.3 102.6 11 13
9:00 NNW 10 gust 12 0.7 18.3 102.6 11 13
8:00 NNW 11 gust 13 N/A 19.7 102.6 12 13
7:00 NNW 11 gust 13 0.6 18.3 102.6 12 13
6:00 NNW 10 gust 12 0.6 18.3 102.6 12 13
5:00 NNW 11 gust 12 0.6 19.7 102.6 12 13

Zoom-in to make a selection

Map of Pacific - North Coast marine weather areas Middle Nomad - 46004 South Nomad - 46036 Dixon Entrance Central - 46145 South Moresby - 46147 Nanakwa Shoal - 46181 North Hecate Strait - 46183 North Nomad - 46184 South Hecate Strait - 46185 West Sea Otter - 46204 West Dixon Entrance - 46205 East Dellwood - 46207 West Moresby - 46208 Sartine Island Cape St.James Kindakun Rocks Langara Island Masset Municipal Airport Rose Spit Sandspit Airport Bella Bella Airport Bella Coola Airport Bonilla Island Cathedral Point Cumshewa Island Grey Islet Holland Rock Lucy Islands Lightstation Prince Rupert Airport
Legend:
buoy Buoy
land station Land Station

Pacific - North Coast Area

Another Region

What we are doing

Features

WeatherCAN app: set custom notifications

Learn how to set custom Air Quality Health Index notifications on the WeatherCAN app

Date modified: